Airfield :
LOGIN :

Register | Disclaimer

   EN    FR    IT 

 










Legend :    VFR   Marginal VFR   IFR   Intensive IFR   Very Intensive IFR
Visi :
Ceiling :
>= 8 km
>= 3000ft
5 to 8 km
1000 to 3000 ft
1500m to 5 km
500 to 1000 ft
800 to 1500m
200 to 500 ft
< 800m
< 200 ft
Symbols :   Thunderstorms  Fog  Heavy snow  Heavy precipitations  Wind > 20 kt
SIGMETs :     Misc.  Thunderstorms  Icing  Turbulence  Mountain Waves  Volcanic Ashes






- Airport Elevation : 49 ft
- IATA code : SEN


EGMC - Southend

CURRENT METAR :
  • 310250Z 19010KT 9999 SCT015 SCT036 13/12 Q1017

EXPIRED METARs :
  • 310050Z 20012KT 9999 BKN011 14/13 Q1019

TAF TAF EGMC
Valid from the 31 at 03:00 until the 31 at 12:00 UTC


310153Z 3103/3112 20010KT 9999 BKN012
BECMG 3103/3106 BKN020
PROB30
TEMPO 3103/3106 6000 RADZ
BECMG 3106/3109 18015G25KT
PROB30
TEMPO 3110/3112 6000 +SHRA BKN012



MET'MAP, your aeronautical weather chart ! - Copyright ORBIFLY December 2007 - Disclaimer

ORBIFLY MET'MAP TEAM :

Programming & Development : Alexandra Zaïnal
Concept & original design : Baudouin d'Aumeries
Assistance for programming : Marc-Olivier Méhu
Technical & hardware support : Manuel Goepfert

Contact : metmap@orbifly.com




SOURCES & CREDITS :

   NOAA